KQA604 HKJK-HKMO
Flight info
| Callsign | KQA604 |
|---|---|
| Flight time | 1h 4m |
| Altitude | 33000 |
| Route | APNOM2E UVOVA UQ135 NEREV NEREV3A |
| Aircraft | B738/M-SDE2E3FGHIRWXY/LB1 |
Departure
| Time | 2026-04-23 07:08 |
|---|---|
| Airport | Jomo Kenyatta International Airport (HKJK) |
Arrival
| Time | 2026-04-23 08:12 |
|---|---|
| Airport | Moi International Airport (HKMO) |
| Time | Latitude | Longitude | Altitude | Speed | Heading |
|---|---|---|---|---|---|
| 2026-04-23 06:50 | -1.31545 | 36.92789 | 5336 ft | 0 kts | 56° |
| 2026-04-23 06:56 | -1.31545 | 36.92790 | 5336 ft | 0 kts | 56° |
| 2026-04-23 07:00 | -1.31543 | 36.92794 | 5336 ft | 2 kts | 69° |
| 2026-04-23 07:00 | -1.31543 | 36.92810 | 5336 ft | 4 kts | 106° |
| 2026-04-23 07:01 | -1.31570 | 36.92841 | 5336 ft | 8 kts | 141° |
| 2026-04-23 07:01 | -1.31626 | 36.92881 | 5336 ft | 11 kts | 144° |
| 2026-04-23 07:01 | -1.31649 | 36.92898 | 5336 ft | 2 kts | 146° |
| 2026-04-23 07:01 | -1.31678 | 36.92918 | 5336 ft | 7 kts | 142° |
| 2026-04-23 07:02 | -1.31689 | 36.92925 | 5336 ft | 0 kts | 147° |
| 2026-04-23 07:02 | -1.31692 | 36.92927 | 5336 ft | 2 kts | 151° |
| 2026-04-23 07:02 | -1.31722 | 36.92950 | 5336 ft | 9 kts | 137° |
| 2026-04-23 07:03 | -1.31736 | 36.93031 | 5336 ft | 21 kts | 64° |
| 2026-04-23 07:03 | -1.31618 | 36.93208 | 5336 ft | 35 kts | 51° |
| 2026-04-23 07:03 | -1.31454 | 36.93430 | 5336 ft | 45 kts | 54° |
| 2026-04-23 07:03 | -1.31249 | 36.93710 | 5336 ft | 54 kts | 54° |
| 2026-04-23 07:04 | -1.31015 | 36.94033 | 5336 ft | 62 kts | 54° |
| 2026-04-23 07:04 | -1.30812 | 36.94312 | 5336 ft | 31 kts | 56° |
| 2026-04-23 07:04 | -1.30695 | 36.94471 | 5336 ft | 18 kts | 55° |
| 2026-04-23 07:04 | -1.30626 | 36.94546 | 5336 ft | 7 kts | 21° |
| 2026-04-23 07:05 | -1.30579 | 36.94573 | 5336 ft | 14 kts | 54° |
| 2026-04-23 07:05 | -1.30592 | 36.94614 | 5336 ft | 3 kts | 207° |
| 2026-04-23 07:05 | -1.30603 | 36.94601 | 5336 ft | 0 kts | 234° |
| 2026-04-23 07:07 | -1.30611 | 36.94588 | 5336 ft | 17 kts | 234° |
| 2026-04-23 07:07 | -1.30843 | 36.94269 | 5336 ft | 95 kts | 234° |
| 2026-04-23 07:07 | -1.31368 | 36.93551 | 5342 ft | 159 kts | 236° |
| 2026-04-23 07:08 | -1.32008 | 36.92575 | 6048 ft | 166 kts | 238° |
| 2026-04-23 07:08 | -1.32533 | 36.91585 | 7026 ft | 165 kts | 242° |
| 2026-04-23 07:08 | -1.33072 | 36.90558 | 7603 ft | 175 kts | 237° |
| 2026-04-23 07:08 | -1.34011 | 36.89682 | 7913 ft | 195 kts | 215° |
| 2026-04-23 07:09 | -1.35273 | 36.89031 | 8285 ft | 213 kts | 202° |
| 2026-04-23 07:09 | -1.36707 | 36.88466 | 8747 ft | 230 kts | 201° |
| 2026-04-23 07:09 | -1.38265 | 36.87862 | 9147 ft | 250 kts | 200° |
| 2026-04-23 07:09 | -1.39949 | 36.87213 | 9541 ft | 270 kts | 200° |
| 2026-04-23 07:10 | -1.41764 | 36.86519 | 9950 ft | 288 kts | 200° |
| 2026-04-23 07:10 | -1.43062 | 36.86021 | 10178 ft | 294 kts | 200° |
| 2026-04-23 07:10 | -1.44997 | 36.85279 | 10239 ft | 298 kts | 200° |
| 2026-04-23 07:10 | -1.46928 | 36.84537 | 10249 ft | 297 kts | 200° |
| 2026-04-23 07:11 | -1.48928 | 36.84108 | 10221 ft | 293 kts | 180° |
| 2026-04-23 07:11 | -1.50907 | 36.84473 | 10233 ft | 290 kts | 158° |
| 2026-04-23 07:11 | -1.52576 | 36.85602 | 10462 ft | 298 kts | 134° |
| 2026-04-23 07:12 | -1.54476 | 36.89433 | 11243 ft | 330 kts | 107° |
| 2026-04-23 07:12 | -1.55098 | 36.91679 | 11779 ft | 340 kts | 105° |
| 2026-04-23 07:12 | -1.55706 | 36.94006 | 12480 ft | 344 kts | 105° |
| 2026-04-23 07:12 | -1.56341 | 36.96335 | 13199 ft | 349 kts | 105° |
| 2026-04-23 07:13 | -1.56994 | 36.98648 | 13907 ft | 352 kts | 106° |
| 2026-04-23 07:13 | -1.57681 | 37.01018 | 14616 ft | 356 kts | 107° |
| 2026-04-23 07:13 | -1.58387 | 37.03404 | 15318 ft | 360 kts | 107° |
| 2026-04-23 07:13 | -1.59113 | 37.05818 | 16008 ft | 364 kts | 107° |
| 2026-04-23 07:14 | -1.59854 | 37.08253 | 16671 ft | 368 kts | 107° |
| 2026-04-23 07:14 | -1.60611 | 37.10721 | 17316 ft | 372 kts | 107° |
| 2026-04-23 07:14 | -1.61378 | 37.13204 | 17944 ft | 376 kts | 107° |
| 2026-04-23 07:14 | -1.62157 | 37.15714 | 18546 ft | 380 kts | 107° |
| 2026-04-23 07:15 | -1.62947 | 37.18247 | 19137 ft | 384 kts | 107° |
| 2026-04-23 07:15 | -1.63746 | 37.20799 | 19744 ft | 386 kts | 108° |
| 2026-04-23 07:15 | -1.64552 | 37.23372 | 20286 ft | 390 kts | 108° |
| 2026-04-23 07:15 | -1.65366 | 37.25968 | 20818 ft | 393 kts | 108° |
| 2026-04-23 07:16 | -1.66188 | 37.28587 | 21370 ft | 396 kts | 108° |
| 2026-04-23 07:16 | -1.67014 | 37.31216 | 21860 ft | 399 kts | 108° |
| 2026-04-23 07:16 | -1.67851 | 37.33877 | 22335 ft | 402 kts | 108° |
| 2026-04-23 07:16 | -1.68695 | 37.36564 | 22798 ft | 406 kts | 108° |
| 2026-04-23 07:17 | -1.69544 | 37.39262 | 23246 ft | 409 kts | 108° |
| 2026-04-23 07:17 | -1.70398 | 37.41978 | 23717 ft | 411 kts | 108° |
| 2026-04-23 07:17 | -1.71258 | 37.44712 | 24133 ft | 414 kts | 108° |
| 2026-04-23 07:17 | -1.72124 | 37.47467 | 24522 ft | 417 kts | 108° |
| 2026-04-23 07:18 | -1.72996 | 37.50243 | 24905 ft | 420 kts | 108° |
| 2026-04-23 07:18 | -1.73864 | 37.53006 | 25283 ft | 423 kts | 108° |
| 2026-04-23 07:18 | -1.74749 | 37.55822 | 25641 ft | 427 kts | 108° |
| 2026-04-23 07:18 | -1.75642 | 37.58663 | 25999 ft | 430 kts | 108° |
| 2026-04-23 07:19 | -1.76657 | 37.61481 | 26360 ft | 432 kts | 115° |
| 2026-04-23 07:19 | -1.78108 | 37.64121 | 26695 ft | 435 kts | 124° |
| 2026-04-23 07:19 | -1.79966 | 37.66516 | 27032 ft | 438 kts | 131° |
| 2026-04-23 07:19 | -1.82047 | 37.68751 | 27374 ft | 440 kts | 134° |
| 2026-04-23 07:20 | -1.84206 | 37.70937 | 27685 ft | 443 kts | 135° |
| 2026-04-23 07:20 | -1.86388 | 37.73127 | 28024 ft | 446 kts | 135° |
| 2026-04-23 07:20 | -1.88585 | 37.75326 | 28326 ft | 449 kts | 135° |
| 2026-04-23 07:20 | -1.90793 | 37.77535 | 28637 ft | 451 kts | 135° |
| 2026-04-23 07:21 | -1.93017 | 37.79758 | 28947 ft | 453 kts | 136° |
| 2026-04-23 07:21 | -1.95253 | 37.81993 | 29247 ft | 456 kts | 136° |
| 2026-04-23 07:21 | -1.97506 | 37.84243 | 29557 ft | 457 kts | 136° |
| 2026-04-23 07:21 | -1.99762 | 37.86494 | 29975 ft | 457 kts | 136° |
| 2026-04-23 07:22 | -2.02003 | 37.88731 | 30400 ft | 456 kts | 136° |
| 2026-04-23 07:22 | -2.04223 | 37.90945 | 30793 ft | 456 kts | 136° |
| 2026-04-23 07:22 | -2.06466 | 37.93183 | 31191 ft | 455 kts | 136° |
| 2026-04-23 07:22 | -2.08707 | 37.95418 | 31598 ft | 455 kts | 136° |
| 2026-04-23 07:23 | -2.10974 | 37.97680 | 31995 ft | 455 kts | 136° |
| 2026-04-23 07:23 | -2.13183 | 37.99883 | 32380 ft | 454 kts | 136° |
| 2026-04-23 07:23 | -2.15419 | 38.02113 | 32770 ft | 454 kts | 136° |
| 2026-04-23 07:23 | -2.17658 | 38.04347 | 33077 ft | 455 kts | 136° |
| 2026-04-23 07:24 | -2.19910 | 38.06593 | 33110 ft | 458 kts | 136° |
| 2026-04-23 07:24 | -2.24419 | 38.11093 | 33109 ft | 455 kts | 136° |
| 2026-04-23 07:25 | -2.28885 | 38.15548 | 33105 ft | 454 kts | 136° |
| 2026-04-23 07:25 | -2.33356 | 38.20010 | 33102 ft | 453 kts | 136° |
| 2026-04-23 07:26 | -2.37822 | 38.24467 | 33098 ft | 453 kts | 136° |
| 2026-04-23 07:26 | -2.42287 | 38.28924 | 33094 ft | 453 kts | 136° |
| 2026-04-23 07:27 | -2.46754 | 38.33383 | 33090 ft | 453 kts | 136° |
| 2026-04-23 07:27 | -2.51184 | 38.37807 | 33087 ft | 453 kts | 136° |
| 2026-04-23 07:28 | -2.55644 | 38.42260 | 33083 ft | 453 kts | 136° |
| 2026-04-23 07:28 | -2.59858 | 38.46468 | 32485 ft | 449 kts | 136° |
| 2026-04-23 07:28 | -2.62066 | 38.48674 | 31825 ft | 448 kts | 136° |
| 2026-04-23 07:29 | -2.64261 | 38.50866 | 31258 ft | 445 kts | 136° |
| 2026-04-23 07:29 | -2.66450 | 38.53053 | 30699 ft | 443 kts | 136° |
| 2026-04-23 07:29 | -2.68623 | 38.55223 | 30149 ft | 440 kts | 136° |
| 2026-04-23 07:29 | -2.70783 | 38.57381 | 29611 ft | 437 kts | 136° |
| 2026-04-23 07:30 | -2.72929 | 38.59526 | 29079 ft | 434 kts | 136° |
| 2026-04-23 07:30 | -2.74186 | 38.60781 | 28767 ft | 432 kts | 136° |
| 2026-04-23 07:30 | -2.76308 | 38.62902 | 28239 ft | 429 kts | 135° |
| 2026-04-23 07:30 | -2.78412 | 38.65004 | 27715 ft | 426 kts | 135° |
| 2026-04-23 07:31 | -2.80500 | 38.67090 | 27191 ft | 423 kts | 135° |
| 2026-04-23 07:31 | -2.82546 | 38.69134 | 26678 ft | 419 kts | 135° |
| 2026-04-23 07:31 | -2.84602 | 38.71189 | 26160 ft | 416 kts | 135° |
| 2026-04-23 07:31 | -2.86670 | 38.73254 | 25640 ft | 413 kts | 135° |
| 2026-04-23 07:32 | -2.88692 | 38.75276 | 25129 ft | 409 kts | 135° |
| 2026-04-23 07:32 | -2.90672 | 38.77256 | 24628 ft | 406 kts | 135° |
| 2026-04-23 07:32 | -2.92667 | 38.79250 | 24122 ft | 403 kts | 135° |
| 2026-04-23 07:32 | -2.94636 | 38.81219 | 23621 ft | 400 kts | 135° |
| 2026-04-23 07:33 | -2.96599 | 38.83181 | 23120 ft | 396 kts | 135° |
| 2026-04-23 07:33 | -2.98542 | 38.85125 | 22621 ft | 393 kts | 135° |
| 2026-04-23 07:33 | -3.00470 | 38.87053 | 22126 ft | 390 kts | 135° |
| 2026-04-23 07:33 | -3.02384 | 38.88966 | 21633 ft | 388 kts | 135° |
| 2026-04-23 07:34 | -3.04289 | 38.90870 | 21141 ft | 385 kts | 135° |
| 2026-04-23 07:34 | -3.06177 | 38.92756 | 20654 ft | 382 kts | 134° |
| 2026-04-23 07:34 | -3.08051 | 38.94630 | 20170 ft | 380 kts | 134° |
| 2026-04-23 07:34 | -3.09912 | 38.96492 | 19691 ft | 377 kts | 134° |
| 2026-04-23 07:35 | -3.11761 | 38.98343 | 19214 ft | 375 kts | 134° |
| 2026-04-23 07:35 | -3.13600 | 39.00179 | 18741 ft | 372 kts | 134° |
| 2026-04-23 07:35 | -3.15428 | 39.02012 | 18271 ft | 370 kts | 134° |
| 2026-04-23 07:35 | -3.17242 | 39.03828 | 17806 ft | 368 kts | 134° |
| 2026-04-23 07:36 | -3.19041 | 39.05631 | 17344 ft | 365 kts | 134° |
| 2026-04-23 07:36 | -3.20835 | 39.07426 | 16884 ft | 363 kts | 134° |
| 2026-04-23 07:36 | -3.22594 | 39.09183 | 16435 ft | 361 kts | 134° |
| 2026-04-23 07:36 | -3.24363 | 39.10957 | 15977 ft | 359 kts | 135° |
| 2026-04-23 07:37 | -3.26150 | 39.12689 | 15526 ft | 357 kts | 136° |
| 2026-04-23 07:37 | -3.27938 | 39.14392 | 15081 ft | 355 kts | 136° |
| 2026-04-23 07:37 | -3.29727 | 39.16096 | 14638 ft | 353 kts | 136° |
| 2026-04-23 07:37 | -3.31493 | 39.17788 | 14198 ft | 350 kts | 136° |
| 2026-04-23 07:38 | -3.33245 | 39.19465 | 13765 ft | 348 kts | 136° |
| 2026-04-23 07:38 | -3.34986 | 39.21133 | 13336 ft | 345 kts | 136° |
| 2026-04-23 07:38 | -3.36715 | 39.22789 | 12911 ft | 343 kts | 136° |
| 2026-04-23 07:38 | -3.38409 | 39.24412 | 12489 ft | 333 kts | 136° |
| 2026-04-23 07:39 | -3.39516 | 39.25472 | 12216 ft | 329 kts | 136° |
| 2026-04-23 07:39 | -3.41157 | 39.27045 | 11804 ft | 325 kts | 136° |
| 2026-04-23 07:39 | -3.42777 | 39.28596 | 11398 ft | 320 kts | 136° |
| 2026-04-23 07:39 | -3.44370 | 39.30122 | 11001 ft | 316 kts | 136° |
| 2026-04-23 07:40 | -3.45946 | 39.31632 | 10760 ft | 309 kts | 136° |
| 2026-04-23 07:40 | -3.47469 | 39.33091 | 10599 ft | 297 kts | 136° |
| 2026-04-23 07:40 | -3.48939 | 39.34501 | 10439 ft | 286 kts | 137° |
| 2026-04-23 07:40 | -3.50353 | 39.35855 | 10288 ft | 277 kts | 137° |
| 2026-04-23 07:41 | -3.51738 | 39.37180 | 10144 ft | 274 kts | 137° |
| 2026-04-23 07:41 | -3.53105 | 39.38480 | 10000 ft | 272 kts | 137° |
| 2026-04-23 07:41 | -3.54473 | 39.39793 | 9717 ft | 273 kts | 136° |
| 2026-04-23 07:41 | -3.55843 | 39.41109 | 9428 ft | 273 kts | 136° |
| 2026-04-23 07:42 | -3.57208 | 39.42425 | 9130 ft | 272 kts | 136° |
| 2026-04-23 07:42 | -3.58566 | 39.43729 | 8839 ft | 271 kts | 137° |
| 2026-04-23 07:42 | -3.59925 | 39.45034 | 8542 ft | 269 kts | 137° |
| 2026-04-23 07:42 | -3.61273 | 39.46328 | 8240 ft | 268 kts | 137° |
| 2026-04-23 07:43 | -3.62622 | 39.47620 | 7936 ft | 267 kts | 137° |
| 2026-04-23 07:43 | -3.63963 | 39.48907 | 7630 ft | 266 kts | 137° |
| 2026-04-23 07:43 | -3.65297 | 39.50190 | 7316 ft | 266 kts | 137° |
| 2026-04-23 07:43 | -3.66631 | 39.51470 | 7006 ft | 265 kts | 137° |
| 2026-04-23 07:44 | -3.67942 | 39.52729 | 6692 ft | 264 kts | 137° |
| 2026-04-23 07:44 | -3.69270 | 39.54003 | 6374 ft | 264 kts | 137° |
| 2026-04-23 07:44 | -3.70592 | 39.55277 | 6057 ft | 263 kts | 137° |
| 2026-04-23 07:44 | -3.71896 | 39.56528 | 5892 ft | 256 kts | 138° |
| 2026-04-23 07:45 | -3.73158 | 39.57742 | 5748 ft | 245 kts | 138° |
| 2026-04-23 07:45 | -3.74357 | 39.58892 | 5630 ft | 231 kts | 139° |
| 2026-04-23 07:45 | -3.75475 | 39.59962 | 5449 ft | 220 kts | 139° |
| 2026-04-23 07:45 | -3.76570 | 39.61013 | 5129 ft | 217 kts | 139° |
| 2026-04-23 07:46 | -3.77638 | 39.62066 | 4760 ft | 216 kts | 136° |
| 2026-04-23 07:46 | -3.77665 | 39.62096 | 4749 ft | 216 kts | 135° |
| 2026-04-23 07:46 | -3.78528 | 39.63254 | 4375 ft | 217 kts | 126° |
| 2026-04-23 07:46 | -3.79277 | 39.64562 | 4236 ft | 214 kts | 123° |
| 2026-04-23 07:47 | -3.79969 | 39.65875 | 4238 ft | 214 kts | 123° |
| 2026-04-23 07:47 | -3.80753 | 39.67165 | 4246 ft | 217 kts | 130° |
| 2026-04-23 07:47 | -3.81734 | 39.68313 | 4121 ft | 216 kts | 142° |
| 2026-04-23 07:47 | -3.83047 | 39.68974 | 3987 ft | 209 kts | 166° |
| 2026-04-23 07:48 | -3.84441 | 39.69075 | 3801 ft | 195 kts | 184° |
| 2026-04-23 07:48 | -3.85186 | 39.68964 | 3671 ft | 189 kts | 192° |
| 2026-04-23 07:48 | -3.86126 | 39.68686 | 3487 ft | 182 kts | 199° |
| 2026-04-23 07:48 | -3.87248 | 39.68157 | 3211 ft | 176 kts | 208° |
| 2026-04-23 07:49 | -3.88236 | 39.67455 | 2903 ft | 173 kts | 218° |
| 2026-04-23 07:49 | -3.89073 | 39.66597 | 2567 ft | 171 kts | 228° |
| 2026-04-23 07:49 | -3.89706 | 39.65639 | 2369 ft | 157 kts | 238° |
| 2026-04-23 07:49 | -3.90085 | 39.64679 | 2212 ft | 141 kts | 252° |
| 2026-04-23 07:50 | -3.90215 | 39.63730 | 1991 ft | 136 kts | 268° |
| 2026-04-23 07:50 | -3.90106 | 39.62788 | 1725 ft | 137 kts | 284° |
| 2026-04-23 07:50 | -3.89775 | 39.61900 | 1492 ft | 136 kts | 294° |
| 2026-04-23 07:50 | -3.89193 | 39.61012 | 1590 ft | 164 kts | 307° |
| 2026-04-23 07:51 | -3.88293 | 39.60412 | 2193 ft | 156 kts | 351° |
| 2026-04-23 07:51 | -3.87773 | 39.60483 | 2391 ft | 162 kts | 20° |
| 2026-04-23 07:53 | -3.87049 | 39.60899 | 2717 ft | 166 kts | 40° |
| 2026-04-23 07:53 | -3.85908 | 39.61317 | 2852 ft | 184 kts | 5° |
| 2026-04-23 07:54 | -3.84751 | 39.60821 | 2893 ft | 184 kts | 314° |
| 2026-04-23 07:54 | -3.84149 | 39.59744 | 2934 ft | 181 kts | 292° |
| 2026-04-23 07:54 | -3.83520 | 39.58644 | 2925 ft | 182 kts | 297° |
| 2026-04-23 07:54 | -3.82881 | 39.57550 | 2872 ft | 182 kts | 297° |
| 2026-04-23 07:55 | -3.82277 | 39.56451 | 2845 ft | 179 kts | 296° |
| 2026-04-23 07:55 | -3.81728 | 39.55341 | 2834 ft | 176 kts | 288° |
| 2026-04-23 07:55 | -3.81434 | 39.54164 | 2858 ft | 174 kts | 278° |
| 2026-04-23 07:55 | -3.81234 | 39.52956 | 2882 ft | 179 kts | 275° |
| 2026-04-23 07:56 | -3.81072 | 39.51744 | 2860 ft | 171 kts | 270° |
| 2026-04-23 07:56 | -3.81451 | 39.50706 | 2707 ft | 155 kts | 229° |
| 2026-04-23 07:56 | -3.82235 | 39.50037 | 2819 ft | 145 kts | 218° |
| 2026-04-23 07:56 | -3.83062 | 39.49464 | 2849 ft | 145 kts | 215° |
| 2026-04-23 07:57 | -3.83921 | 39.48924 | 2869 ft | 148 kts | 213° |
| 2026-04-23 07:57 | -3.84812 | 39.48373 | 2892 ft | 150 kts | 211° |
| 2026-04-23 07:57 | -3.85703 | 39.47849 | 2883 ft | 150 kts | 210° |
| 2026-04-23 07:57 | -3.86600 | 39.47313 | 2877 ft | 151 kts | 211° |
| 2026-04-23 07:58 | -3.87505 | 39.46783 | 2874 ft | 151 kts | 210° |
| 2026-04-23 07:58 | -3.88425 | 39.46230 | 2890 ft | 158 kts | 210° |
| 2026-04-23 07:58 | -3.89372 | 39.45669 | 2888 ft | 159 kts | 210° |
| 2026-04-23 07:58 | -3.90318 | 39.45104 | 2877 ft | 157 kts | 210° |
| 2026-04-23 07:59 | -3.91249 | 39.44552 | 2865 ft | 154 kts | 210° |
| 2026-04-23 07:59 | -3.92172 | 39.44010 | 2864 ft | 154 kts | 210° |
| 2026-04-23 07:59 | -3.93120 | 39.43451 | 2895 ft | 159 kts | 210° |
| 2026-04-23 07:59 | -3.94055 | 39.42900 | 2942 ft | 156 kts | 209° |
| 2026-04-23 08:00 | -3.95070 | 39.42546 | 2967 ft | 154 kts | 192° |
| 2026-04-23 08:00 | -3.96130 | 39.42404 | 3000 ft | 153 kts | 187° |
| 2026-04-23 08:00 | -3.97189 | 39.42317 | 2989 ft | 152 kts | 186° |
| 2026-04-23 08:00 | -3.98247 | 39.42296 | 2979 ft | 152 kts | 182° |
| 2026-04-23 08:01 | -3.99303 | 39.42333 | 2970 ft | 153 kts | 178° |
| 2026-04-23 08:01 | -4.00365 | 39.42543 | 2987 ft | 156 kts | 170° |
| 2026-04-23 08:01 | -4.01410 | 39.42816 | 2976 ft | 155 kts | 168° |
| 2026-04-23 08:01 | -4.02359 | 39.43341 | 2906 ft | 160 kts | 143° |
| 2026-04-23 08:02 | -4.03031 | 39.44185 | 2977 ft | 155 kts | 133° |
| 2026-04-23 08:02 | -4.03618 | 39.45077 | 2968 ft | 152 kts | 130° |
| 2026-04-23 08:02 | -4.04007 | 39.46072 | 2897 ft | 158 kts | 109° |
| 2026-04-23 08:02 | -4.04039 | 39.47172 | 2957 ft | 160 kts | 99° |
| 2026-04-23 08:03 | -4.04013 | 39.48295 | 2982 ft | 162 kts | 97° |
| 2026-04-23 08:03 | -4.04000 | 39.49413 | 2946 ft | 157 kts | 106° |
| 2026-04-23 08:03 | -4.04547 | 39.50357 | 2712 ft | 157 kts | 130° |
| 2026-04-23 08:03 | -4.05178 | 39.51197 | 2734 ft | 147 kts | 134° |
| 2026-04-23 08:04 | -4.05792 | 39.52016 | 2702 ft | 147 kts | 133° |
| 2026-04-23 08:04 | -4.06403 | 39.52855 | 2969 ft | 151 kts | 135° |
| 2026-04-23 08:04 | -4.07093 | 39.53678 | 3073 ft | 157 kts | 137° |
| 2026-04-23 08:04 | -4.07796 | 39.54533 | 3034 ft | 162 kts | 134° |
| 2026-04-23 08:05 | -4.08471 | 39.55461 | 2957 ft | 165 kts | 131° |
| 2026-04-23 08:05 | -4.08964 | 39.56468 | 3043 ft | 165 kts | 109° |
| 2026-04-23 08:05 | -4.08761 | 39.57757 | 2844 ft | 214 kts | 68° |
| 2026-04-23 08:05 | -4.07652 | 39.58622 | 2869 ft | 207 kts | 14° |
| 2026-04-23 08:06 | -4.06227 | 39.58526 | 2392 ft | 211 kts | 352° |
| 2026-04-23 08:06 | -4.04898 | 39.58120 | 2386 ft | 179 kts | 321° |
| 2026-04-23 08:06 | -4.04417 | 39.57199 | 2528 ft | 132 kts | 277° |
| 2026-04-23 08:06 | -4.04508 | 39.56389 | 2382 ft | 116 kts | 255° |
| 2026-04-23 08:07 | -4.04948 | 39.55662 | 2137 ft | 129 kts | 245° |
| 2026-04-23 08:07 | -4.05506 | 39.54811 | 2420 ft | 159 kts | 234° |
| 2026-04-23 08:07 | -4.06199 | 39.53954 | 3126 ft | 156 kts | 225° |
| 2026-04-23 08:07 | -4.06886 | 39.53148 | 3316 ft | 150 kts | 225° |
| 2026-04-23 08:08 | -4.07578 | 39.52355 | 3031 ft | 153 kts | 224° |
| 2026-04-23 08:08 | -4.08280 | 39.51590 | 2839 ft | 146 kts | 221° |
| 2026-04-23 08:08 | -4.09092 | 39.51011 | 2576 ft | 140 kts | 203° |
| 2026-04-23 08:08 | -4.10035 | 39.50847 | 2283 ft | 140 kts | 187° |
| 2026-04-23 08:09 | -4.10999 | 39.50899 | 2005 ft | 139 kts | 171° |
| 2026-04-23 08:09 | -4.11746 | 39.51515 | 1633 ft | 148 kts | 130° |
| 2026-04-23 08:09 | -4.11895 | 39.52524 | 1403 ft | 148 kts | 87° |
| 2026-04-23 08:09 | -4.11392 | 39.53405 | 1385 ft | 147 kts | 62° |
| 2026-04-23 08:10 | -4.10859 | 39.54322 | 1721 ft | 157 kts | 60° |
| 2026-04-23 08:10 | -4.10319 | 39.55163 | 1827 ft | 137 kts | 60° |
| 2026-04-23 08:10 | -4.08835 | 39.56482 | 1522 ft | 146 kts | 33° |
| 2026-04-23 08:11 | -4.07925 | 39.56947 | 1220 ft | 148 kts | 23° |
| 2026-04-23 08:11 | -4.07017 | 39.57386 | 1009 ft | 142 kts | 28° |
| 2026-04-23 08:11 | -4.06174 | 39.57895 | 766 ft | 140 kts | 33° |
| 2026-04-23 08:11 | -4.05355 | 39.58403 | 557 ft | 137 kts | 30° |
| 2026-04-23 08:12 | -4.04522 | 39.58837 | 354 ft | 134 kts | 30° |
| 2026-04-23 08:12 | -4.03727 | 39.59292 | 207 ft | 127 kts | 29° |
| 2026-04-23 08:12 | -4.03025 | 39.59681 | 204 ft | 83 kts | 30° |
| 2026-04-23 08:12 | -4.02830 | 39.59792 | 204 ft | 24 kts | 26° |
| 2026-04-23 08:13 | -4.02710 | 39.59856 | 204 ft | 13 kts | 32° |
| 2026-04-23 08:13 | -4.02677 | 39.59927 | 204 ft | 13 kts | 138° |
| 2026-04-23 08:13 | -4.02773 | 39.59986 | 204 ft | 9 kts | 152° |
| 2026-04-23 08:13 | -4.02837 | 39.60059 | 204 ft | 19 kts | 122° |
| 2026-04-23 08:14 | -4.02896 | 39.60166 | 204 ft | 14 kts | 118° |
| 2026-04-23 08:14 | -4.02926 | 39.60193 | 204 ft | 14 kts | 171° |
| 2026-04-23 08:14 | -4.03018 | 39.60152 | 204 ft | 13 kts | 209° |
| 2026-04-23 08:14 | -4.03061 | 39.60142 | 204 ft | 9 kts | 140° |
| 2026-04-23 08:15 | -4.03095 | 39.60195 | 204 ft | 4 kts | 116° |
| 2026-04-23 08:15 | -4.03097 | 39.60199 | 204 ft | 0 kts | 120° |
| 2026-04-23 08:24 | -1.31546 | 36.92788 | 5328 ft | 0 kts | 56° |